Time;durP1;ratioP1;P1;durP2;ratioP2;P2;SDS_P1;SDS_P2;PMS_P1;PMS_P2;Temp;Humidity;BMP_temperature;BMP_pressure;BME280_temperature;BME280_humidity;BME280_pressure;Samples;Min_cycle;Max_cycle;Signal;HPM_P1;HPM_P2
2023/01/17 00:00:11;;;;;;;3.80;0.93;;;;;;;1.77;96.41;96052.84;4867688;29;20223;-55
2023/01/17 00:02:39;;;;;;;1.23;0.83;;;;;;;1.82;95.82;96044.66;4864855;29;20319;-55
2023/01/17 00:10:40;;;;;;;1.23;0.90;;;;;;;1.88;96.08;96045.78;4885728;29;20323;-55
2023/01/17 00:13:07;;;;;;;3.00;1.17;;;;;;;1.96;91.03;96058.66;4862916;29;20246;-55
2023/01/17 00:15:33;;;;;;;1.23;0.80;;;;;;;2.01;91.48;96046.09;4832062;29;20236;-55
2023/01/17 00:18:01;;;;;;;2.30;1.20;;;;;;;2.01;90.32;96050.47;4839032;29;20245;-54
2023/01/17 00:26:02;;;;;;;2.03;1.10;;;;;;;2.02;95.15;96041.78;4869946;29;20918;-55
2023/01/17 01:35:30;;;;;;;3.27;1.13;;;;;;;2.23;96.40;96028.41;4870173;29;20281;-53
2023/01/17 01:37:57;;;;;;;2.77;1.50;;;;;;;2.20;96.66;96032.09;4873686;29;20273;-54
2023/01/17 01:40:24;;;;;;;3.63;1.20;;;;;;;2.21;97.63;96033.69;4871828;29;20280;-54
2023/01/17 01:42:52;;;;;;;1.70;1.20;;;;;;;2.25;97.58;96021.31;4871908;29;20242;-53
2023/01/17 01:45:21;;;;;;;2.97;1.43;;;;;;;2.22;97.17;96016.50;4874049;29;20236;-55
2023/01/17 01:47:49;;;;;;;5.37;1.40;;;;;;;2.22;98.10;96019.88;4868795;29;20341;-55
2023/01/17 01:50:19;;;;;;;2.33;1.30;;;;;;;2.26;98.36;96014.41;4873028;29;20731;-54
2023/01/17 01:52:51;;;;;;;3.23;1.40;;;;;;;2.27;97.76;96018.56;4869293;29;20237;-55
2023/01/17 01:55:23;;;;;;;3.20;1.40;;;;;;;2.32;97.13;96021.47;4872770;29;20672;-53
2023/01/17 01:57:56;;;;;;;1.47;1.10;;;;;;;2.35;96.89;96021.97;4870546;29;20300;-53
2023/01/17 02:00:29;;;;;;;3.73;1.40;;;;;;;2.36;97.75;96022.75;4873111;29;20451;-55
2023/01/17 02:02:59;;;;;;;5.90;1.70;;;;;;;2.38;96.98;96032.91;4873407;29;20257;-53
2023/01/17 02:05:27;;;;;;;5.47;1.47;;;;;;;2.31;97.76;96033.56;4871331;29;20835;-55
2023/01/17 02:08:01;;;;;;;1.57;1.30;;;;;;;2.23;98.67;96033.56;4873937;29;20240;-54
2023/01/17 02:10:31;;;;;;;2.93;1.50;;;;;;;2.21;99.44;96041.44;4870178;29;20312;-53
2023/01/17 02:12:58;;;;;;;2.37;1.30;;;;;;;2.15;100.00;96036.91;4874924;29;20236;-53
2023/01/17 02:15:30;;;;;;;3.10;1.03;;;;;;;2.12;100.00;96044.19;4873037;29;20233;-53
2023/01/17 02:18:08;;;;;;;3.40;1.23;;;;;;;2.03;100.00;96027.94;4878384;29;20294;-55
2023/01/17 02:20:59;;;;;;;3.30;1.50;;;;;;;1.98;100.00;96032.78;4886608;29;20304;-53
2023/01/17 02:24:09;;;;;;;3.27;1.43;;;;;;;1.88;100.00;96032.91;4870216;29;20247;-54
2023/01/17 02:26:55;;;;;;;2.60;1.33;;;;;;;1.80;100.00;96027.75;4874091;29;20299;-56
2023/01/17 02:30:01;;;;;;;3.57;1.13;;;;;;;1.74;100.00;96029.22;4876038;29;20233;-54
2023/01/17 02:32:37;;;;;;;1.60;1.20;;;;;;;1.62;100.00;96029.53;4870387;29;20796;-55
2023/01/17 02:35:11;;;;;;;1.83;1.10;;;;;;;1.60;100.00;96041.72;4874070;29;20296;-55
2023/01/17 02:37:48;;;;;;;1.60;0.90;;;;;;;1.59;100.00;96041.91;4888706;29;20650;-56
2023/01/17 02:40:23;;;;;;;2.60;1.00;;;;;;;1.53;100.00;96038.19;4872801;29;20719;-55
2023/01/17 02:42:54;;;;;;;2.57;1.20;;;;;;;1.53;100.00;96034.81;4871715;29;20370;-53
2023/01/17 02:45:22;;;;;;;3.03;1.80;;;;;;;1.52;100.00;96038.34;4872334;29;20241;-53
2023/01/17 02:47:49;;;;;;;4.20;1.57;;;;;;;1.49;100.00;96036.09;4871867;29;20244;-53
2023/01/17 02:50:19;;;;;;;2.30;1.43;;;;;;;1.44;100.00;96032.22;4870574;29;20312;-55
2023/01/17 02:53:01;;;;;;;1.87;1.57;;;;;;;1.36;100.00;96028.81;4871411;29;20284;-54
2023/01/17 02:55:41;;;;;;;2.70;1.90;;;;;;;1.40;100.00;96030.94;4870707;29;20281;-53
2023/01/17 02:58:28;;;;;;;3.97;2.00;;;;;;;1.43;100.00;96035.75;4869798;29;20231;-53
2023/01/17 03:01:04;;;;;;;3.77;1.90;;;;;;;1.52;100.00;96031.44;4871525;29;20308;-54
2023/01/17 03:03:37;;;;;;;3.20;2.00;;;;;;;1.58;100.00;96028.22;4869419;29;20803;-55
2023/01/17 03:06:10;;;;;;;5.77;1.50;;;;;;;1.68;100.00;96042.72;4873616;29;20614;-55
2023/01/17 03:08:40;;;;;;;3.83;1.60;;;;;;;1.77;100.00;96034.03;4869115;29;20237;-53
2023/01/17 03:11:08;;;;;;;3.27;1.33;;;;;;;1.84;100.00;96036.75;4873125;29;20233;-55
2023/01/17 03:13:35;;;;;;;1.50;1.00;;;;;;;1.92;99.14;96047.88;4869093;29;20256;-55
2023/01/17 03:16:03;;;;;;;1.53;1.03;;;;;;;1.95;96.75;96033.88;4872265;29;20237;-56
2023/01/17 03:18:29;;;;;;;2.67;1.07;;;;;;;1.98;97.73;96043.06;4893400;29;20257;-56
2023/01/17 03:20:57;;;;;;;3.53;1.30;;;;;;;2.00;96.88;96033.41;4895598;29;20296;-54
2023/01/17 03:23:24;;;;;;;1.20;0.70;;;;;;;2.01;94.25;96022.94;4873850;29;20286;-53
2023/01/17 03:25:50;;;;;;;1.97;1.10;;;;;;;2.05;93.60;96033.72;4876474;29;20233;-54
2023/01/17 03:28:17;;;;;;;1.40;0.90;;;;;;;2.04;93.91;96030.34;4876825;29;20784;-54
2023/01/17 03:30:43;;;;;;;5.43;1.00;;;;;;;2.04;92.80;96029.56;4872623;29;20248;-54
2023/01/17 03:33:10;;;;;;;2.40;0.80;;;;;;;2.04;92.78;96030.34;4875624;29;21196;-55
2023/01/17 03:35:36;;;;;;;2.43;0.90;;;;;;;2.06;92.22;96023.28;4872940;29;20954;-53
2023/01/17 03:38:04;;;;;;;3.60;1.00;;;;;;;2.02;91.84;96026.34;4877431;29;20713;-54
2023/01/17 03:40:32;;;;;;;2.00;0.67;;;;;;;2.00;93.04;96031.63;4873480;29;20234;-55
2023/01/17 03:42:58;;;;;;;1.30;0.97;;;;;;;2.02;90.51;96026.34;4878540;29;20319;-55
2023/01/17 03:45:25;;;;;;;3.10;0.70;;;;;;;2.05;87.17;96031.16;4872008;29;20265;-54
2023/01/17 03:47:52;;;;;;;2.20;0.60;;;;;;;2.09;86.18;96016.19;4876042;29;20245;-54
2023/01/17 03:50:19;;;;;;;0.90;0.60;;;;;;;2.10;85.87;96023.75;4877637;29;20254;-55
2023/01/17 03:52:45;;;;;;;1.60;1.00;;;;;;;2.08;86.23;96037.75;4872880;29;20721;-55
2023/01/17 03:55:13;;;;;;;2.93;0.60;;;;;;;2.08;84.62;96030.03;4875108;29;20306;-55
2023/01/17 03:57:40;;;;;;;1.13;0.70;;;;;;;2.04;84.79;96025.19;4874771;29;20781;-55
2023/01/17 04:00:08;;;;;;;2.37;0.73;;;;;;;2.02;84.30;96032.28;4875675;29;20737;-56
2023/01/17 04:02:35;;;;;;;1.63;0.60;;;;;;;2.09;81.08;96023.91;4872099;29;20239;-56
2023/01/17 04:05:01;;;;;;;3.23;0.60;;;;;;;2.11;79.94;96024.56;4876374;29;20237;-55
2023/01/17 04:07:28;;;;;;;1.40;0.70;;;;;;;2.10;81.73;96026.34;4874881;29;20288;-53
2023/01/17 04:09:54;;;;;;;1.83;0.70;;;;;;;2.05;83.20;96020.88;4876451;29;20245;-55
2023/01/17 04:12:22;;;;;;;2.30;0.70;;;;;;;1.97;82.90;96016.50;4873476;29;20249;-53
2023/01/17 04:14:49;;;;;;;1.60;0.70;;;;;;;1.88;83.92;96015.72;4874063;29;20284;-55
2023/01/17 04:17:18;;;;;;;1.63;0.70;;;;;;;1.84;76.71;96017.00;4876133;29;20320;-55
2023/01/17 04:19:45;;;;;;;0.97;0.50;;;;;;;1.76;78.96;96010.06;4874587;29;20272;-54
2023/01/17 04:22:12;;;;;;;2.40;0.60;;;;;;;1.79;72.28;96006.41;4874583;29;20806;-55
2023/01/17 04:24:38;;;;;;;1.60;0.60;;;;;;;1.75;78.72;96008.47;4873706;29;20654;-56
2023/01/17 04:27:05;;;;;;;0.40;0.33;;;;;;;1.84;71.06;96005.91;4876651;29;20571;-56
2023/01/17 04:29:33;;;;;;;2.00;0.60;;;;;;;1.78;73.40;95991.94;4891579;29;20295;-55
2023/01/17 04:31:59;;;;;;;0.63;0.50;;;;;;;1.76;76.27;95997.22;5103610;23;20692;-61
2023/01/17 04:34:26;;;;;;;1.07;0.40;;;;;;;1.74;77.99;96001.72;4903147;29;20231;-62
2023/01/17 04:36:52;;;;;;;1.73;0.60;;;;;;;1.76;76.33;95996.44;4907294;29;20308;-60
2023/01/17 04:39:19;;;;;;;1.90;0.70;;;;;;;1.85;76.54;96003.19;4906694;28;20234;-61
2023/01/17 04:41:46;;;;;;;2.77;0.60;;;;;;;1.96;75.63;96002.03;4893710;29;20249;-60
2023/01/17 04:44:12;;;;;;;3.23;0.57;;;;;;;2.02;74.59;95998.03;4881580;29;20296;-60
2023/01/17 04:46:40;;;;;;;0.83;0.50;;;;;;;2.00;76.94;95992.25;4879565;29;20236;-60
2023/01/17 04:49:07;;;;;;;2.20;0.47;;;;;;;1.94;78.08;95974.88;4879535;29;20799;-60
2023/01/17 04:51:33;;;;;;;3.93;0.50;;;;;;;1.92;77.80;95983.56;4879550;29;20242;-61
2023/01/17 04:54:00;;;;;;;1.27;0.43;;;;;;;1.94;79.27;95978.25;4882347;29;20248;-60
2023/01/17 04:56:26;;;;;;;0.50;0.40;;;;;;;1.95;78.78;95979.06;4877956;29;20247;-60
2023/01/17 04:58:53;;;;;;;1.50;0.53;;;;;;;1.95;78.94;95976.50;4881087;29;20244;-59
2023/01/17 05:01:19;;;;;;;0.70;0.40;;;;;;;1.95;78.12;95974.72;4878736;29;20310;-60
2023/01/17 05:03:47;;;;;;;2.03;0.80;;;;;;;1.91;84.18;95976.00;4880159;29;20292;-60
2023/01/17 05:06:14;;;;;;;5.47;2.13;;;;;;;1.85;88.69;95977.47;4880682;29;20643;-60
2023/01/17 05:08:40;;;;;;;15.80;6.17;;;;;;;1.77;87.93;95985.19;4880202;29;20693;-60
2023/01/17 05:11:07;;;;;;;9.87;3.47;;;;;;;1.82;86.74;95974.38;4879838;29;20244;-60
2023/01/17 05:13:33;;;;;;;41.93;17.23;;;;;;;1.83;85.74;95974.25;4879224;29;20232;-59
2023/01/17 05:16:00;;;;;;;23.73;10.37;;;;;;;1.83;84.99;95965.72;4881993;29;20588;-60
2023/01/17 05:18:26;;;;;;;5.57;3.20;;;;;;;1.86;84.23;95955.09;4878879;29;20284;-60
2023/01/17 05:21:00;;;;;;;3.23;2.83;;;;;;;1.87;83.54;95962.66;4880319;29;20240;-61
2023/01/17 05:23:26;;;;;;;5.83;3.23;;;;;;;1.91;84.99;95958.81;4880313;29;20753;-59
2023/01/17 05:25:53;;;;;;;5.23;2.70;;;;;;;1.82;88.69;95967.50;4881003;29;20271;-60
2023/01/17 05:28:19;;;;;;;4.60;3.97;;;;;;;1.71;89.23;95966.03;4879412;29;20245;-60
2023/01/17 05:30:46;;;;;;;11.70;10.43;;;;;;;1.64;90.63;95956.56;4880814;29;20621;-59
2023/01/17 05:33:12;;;;;;;15.83;14.13;;;;;;;1.59;86.80;95955.28;4880802;29;20746;-59
2023/01/17 05:35:39;;;;;;;4.57;2.53;;;;;;;1.62;86.74;95949.00;4879140;29;22337;-59
2023/01/17 05:38:07;;;;;;;2.50;1.97;;;;;;;1.54;90.38;95944.66;4882367;29;20632;-59
2023/01/17 05:40:34;;;;;;;3.20;1.50;;;;;;;1.37;91.91;95935.34;4879769;29;20245;-60
2023/01/17 05:43:01;;;;;;;2.20;1.13;;;;;;;1.29;92.62;95934.34;4878632;29;20794;-60
2023/01/17 05:45:30;;;;;;;4.83;1.50;;;;;;;1.13;94.64;95926.63;4877280;29;20232;-63
2023/01/17 05:47:57;;;;;;;3.60;1.20;;;;;;;1.06;91.92;95928.25;4879984;29;20239;-60
2023/01/17 05:50:26;;;;;;;3.07;0.93;;;;;;;1.00;93.68;95925.34;4878586;29;20244;-59
2023/01/17 05:52:55;;;;;;;3.00;1.00;;;;;;;0.91;92.35;95917.75;4882077;29;20307;-60
2023/01/17 05:55:23;;;;;;;3.47;0.90;;;;;;;0.81;92.10;95920.47;4878732;29;20725;-59
2023/01/17 05:57:50;;;;;;;5.63;2.47;;;;;;;0.78;91.31;95921.56;4880497;29;20243;-60
2023/01/17 06:00:18;;;;;;;7.77;4.87;;;;;;;0.78;91.33;95915.66;4881204;29;20800;-61
2023/01/17 06:02:45;;;;;;;4.13;2.50;;;;;;;0.71;90.46;95913.69;4876836;29;20310;-59
2023/01/17 06:05:12;;;;;;;2.23;1.23;;;;;;;0.68;90.36;95914.00;4881643;29;20311;-59
2023/01/17 06:07:39;;;;;;;4.67;1.00;;;;;;;0.57;91.21;95902.25;4878145;29;20232;-60
2023/01/17 06:10:06;;;;;;;4.60;1.37;;;;;;;0.50;96.05;95900.47;4879995;29;20243;-59
2023/01/17 06:12:34;;;;;;;2.93;1.50;;;;;;;0.42;97.39;95907.19;4879091;29;20297;-59
2023/01/17 06:15:01;;;;;;;2.88;1.88;;;;;;;0.31;96.96;95892.06;4879908;29;20456;-59
2023/01/17 06:17:27;;;;;;;1.63;1.40;;;;;;;0.33;95.48;95897.84;4877620;29;20252;-59
2023/01/17 06:19:54;;;;;;;3.00;1.40;;;;;;;0.23;96.15;95892.00;4879654;29;20248;-60
2023/01/17 06:22:20;;;;;;;1.97;0.90;;;;;;;0.13;97.26;95892.94;4879852;29;20300;-60
2023/01/17 06:24:47;;;;;;;2.00;0.90;;;;;;;0.04;96.73;95891.28;4880484;29;20792;-61
2023/01/17 06:27:14;;;;;;;2.73;0.73;;;;;;;-0.04;96.06;95891.25;4881701;29;21510;-60
2023/01/17 06:29:41;;;;;;;2.10;1.67;;;;;;;-0.14;96.82;95893.91;4878700;29;20252;-59
2023/01/17 06:32:08;;;;;;;2.67;1.43;;;;;;;-0.27;98.34;95891.75;4879672;29;20250;-60
2023/01/17 06:34:35;;;;;;;5.93;1.47;;;;;;;-0.31;98.91;95885.31;4877168;29;20240;-59
2023/01/17 06:37:01;;;;;;;2.73;2.00;;;;;;;-0.23;99.37;95884.56;4881148;29;20300;-60
2023/01/17 06:39:28;;;;;;;2.57;1.33;;;;;;;-0.28;99.16;95885.03;4877511;29;20736;-60
2023/01/17 06:41:54;;;;;;;3.93;1.50;;;;;;;-0.29;100.00;95875.72;4881049;29;21140;-61
2023/01/17 06:44:21;;;;;;;2.53;0.93;;;;;;;-0.33;100.00;95882.09;4878601;29;20228;-60
2023/01/17 06:46:49;;;;;;;1.73;1.00;;;;;;;-0.36;99.04;95872.16;4879294;29;20300;-61
2023/01/17 06:49:15;;;;;;;1.50;1.20;;;;;;;-0.24;97.87;95876.09;4878861;29;20220;-61
2023/01/17 06:51:42;;;;;;;1.97;1.10;;;;;;;-0.25;96.30;95879.59;4876539;29;20300;-60
2023/01/17 06:54:08;;;;;;;1.10;0.70;;;;;;;-0.34;96.56;95880.50;4887654;29;20227;-60
2023/01/17 06:56:35;;;;;;;1.77;0.50;;;;;;;-0.42;97.47;95878.66;4883663;29;20238;-61
2023/01/17 06:59:04;;;;;;;1.00;0.80;;;;;;;-0.48;97.49;95869.84;4887375;29;20682;-61
2023/01/17 07:01:31;;;;;;;1.52;0.80;;;;;;;-0.49;98.12;95863.09;4880860;29;20456;-59
2023/01/17 07:03:59;;;;;;;2.20;0.50;;;;;;;-0.58;99.63;95864.00;4887723;29;20245;-61
2023/01/17 07:06:27;;;;;;;0.73;0.67;;;;;;;-0.71;100.00;95866.13;4882544;29;20275;-62
2023/01/17 07:08:54;;;;;;;2.10;1.60;;;;;;;-0.85;100.00;95863.16;4885777;29;20251;-63
2023/01/17 07:11:21;;;;;;;10.00;5.60;;;;;;;-0.84;100.00;95861.41;4884256;29;20732;-61
2023/01/17 07:13:47;;;;;;;29.77;19.07;;;;;;;-0.84;100.00;95853.72;4886158;29;20300;-60
2023/01/17 07:16:14;;;;;;;12.43;8.97;;;;;;;-0.79;100.00;95849.75;4884885;29;20227;-61
2023/01/17 07:18:40;;;;;;;3.23;1.97;;;;;;;-0.83;100.00;95848.44;4884390;29;20827;-61
2023/01/17 07:21:13;;;;;;;13.43;7.70;;;;;;;-0.85;100.00;95841.88;4886379;29;20240;-61
2023/01/17 07:23:40;;;;;;;5.70;2.50;;;;;;;-0.92;100.00;95849.31;4884143;29;20674;-60
2023/01/17 07:26:07;;;;;;;5.97;3.00;;;;;;;-0.88;100.00;95853.19;4884561;29;20234;-61
2023/01/17 07:28:34;;;;;;;6.40;3.67;;;;;;;-0.78;100.00;95851.34;4884804;29;20296;-61
2023/01/17 07:31:06;;;;;;;8.80;4.87;;;;;;;-0.70;100.00;95847.25;4885752;29;20235;-62
2023/01/17 07:33:32;;;;;;;6.30;3.90;;;;;;;-0.67;100.00;95842.66;4880619;29;20245;-61
2023/01/17 07:35:59;;;;;;;3.33;1.83;;;;;;;-0.65;100.00;95845.06;4884876;29;20284;-62
2023/01/17 07:38:27;;;;;;;2.37;1.20;;;;;;;-0.66;100.00;95851.13;4883367;29;21035;-61
2023/01/17 07:40:57;;;;;;;2.43;1.10;;;;;;;-0.66;100.00;95846.00;4884913;29;20307;-61
2023/01/17 07:43:24;;;;;;;1.33;0.80;;;;;;;-0.63;99.58;95846.53;4883283;29;20235;-61
2023/01/17 07:45:51;;;;;;;2.67;0.80;;;;;;;-0.60;100.00;95850.53;4885749;29;20867;-61
2023/01/17 07:48:18;;;;;;;5.03;1.43;;;;;;;-0.48;100.00;95846.78;4886464;29;20246;-62
2023/01/17 07:50:44;;;;;;;1.83;0.80;;;;;;;-0.49;98.91;95854.59;4884449;29;20249;-61
2023/01/17 07:53:11;;;;;;;3.23;0.97;;;;;;;-0.45;98.94;95859.28;4886224;29;20241;-61
2023/01/17 07:55:39;;;;;;;2.00;0.97;;;;;;;-0.37;98.17;95855.97;4882507;29;20242;-61
2023/01/17 07:58:06;;;;;;;3.03;0.70;;;;;;;-0.33;96.36;95859.03;4886791;29;20235;-61
2023/01/17 08:00:33;;;;;;;1.83;0.90;;;;;;;-0.27;96.71;95858.44;4882563;29;20231;-62
2023/01/17 08:03:00;;;;;;;2.70;0.87;;;;;;;-0.18;96.43;95861.84;4882437;29;20240;-61
2023/01/17 08:05:27;;;;;;;1.40;0.70;;;;;;;-0.16;97.22;95863.31;4879674;29;20727;-61
2023/01/17 08:07:53;;;;;;;1.13;0.80;;;;;;;-0.14;97.59;95867.47;4882213;29;20455;-62
2023/01/17 08:10:21;;;;;;;3.60;0.60;;;;;;;-0.09;97.87;95870.41;4881457;29;20708;-61
2023/01/17 08:12:50;;;;;;;3.90;0.67;;;;;;;0.01;98.90;95870.28;4882632;29;20254;-62
2023/01/17 08:15:18;;;;;;;3.60;0.97;;;;;;;0.07;98.06;95865.31;4883400;29;20303;-61
2023/01/17 08:17:48;;;;;;;2.73;0.60;;;;;;;0.16;97.38;95865.38;4880184;29;20239;-61
2023/01/17 08:20:15;;;;;;;3.73;0.60;;;;;;;0.22;97.67;95857.06;4882301;29;20243;-62
2023/01/17 08:22:41;;;;;;;1.90;0.50;;;;;;;0.27;96.60;95858.22;4880301;29;20336;-61
2023/01/17 08:25:09;;;;;;;2.70;0.60;;;;;;;0.31;96.61;95853.56;4883443;29;20240;-62
2023/01/17 08:27:36;;;;;;;0.70;0.37;;;;;;;0.39;95.98;95853.59;4880161;29;20239;-61
2023/01/17 08:30:04;;;;;;;1.37;0.70;;;;;;;0.47;95.46;95850.28;4883111;29;20776;-61
2023/01/17 08:32:31;;;;;;;2.93;0.47;;;;;;;0.52;95.28;95837.78;4877892;29;20240;-61
2023/01/17 08:34:58;;;;;;;1.90;0.70;;;;;;;0.49;95.40;95837.25;4882382;29;20292;-61
2023/01/17 08:37:24;;;;;;;3.70;0.73;;;;;;;0.51;96.18;95827.66;4878380;29;20231;-61
2023/01/17 08:39:51;;;;;;;3.23;0.60;;;;;;;0.49;94.00;95829.56;4882279;29;20711;-61
2023/01/17 08:42:18;;;;;;;2.27;0.80;;;;;;;0.47;92.65;95818.66;4881912;29;20713;-61
2023/01/17 08:44:44;;;;;;;2.23;0.63;;;;;;;0.46;91.91;95824.75;4879258;29;20800;-61
2023/01/17 08:47:12;;;;;;;1.03;0.53;;;;;;;0.44;92.47;95819.78;4881427;29;20594;-61
2023/01/17 08:49:39;;;;;;;1.87;0.73;;;;;;;0.36;92.14;95815.41;4880121;29;20271;-61
2023/01/17 08:52:06;;;;;;;6.03;1.90;;;;;;;0.36;91.71;95806.94;4881125;29;20245;-61
2023/01/17 08:54:33;;;;;;;4.10;1.20;;;;;;;0.39;91.62;95794.56;4879475;29;20240;-62
2023/01/17 08:57:02;;;;;;;1.57;0.90;;;;;;;0.43;90.65;95789.94;4882861;29;20232;-60
2023/01/17 08:59:28;;;;;;;2.70;0.80;;;;;;;0.39;90.76;95788.66;4878626;29;20236;-61
2023/01/17 09:01:56;;;;;;;1.20;0.77;;;;;;;0.37;91.54;95804.19;4879480;29;20259;-62
2023/01/17 09:04:24;;;;;;;5.53;1.83;;;;;;;0.46;91.24;95812.72;4876081;29;20232;-62
2023/01/17 09:06:51;;;;;;;4.10;1.53;;;;;;;0.63;90.84;95810.16;4882679;29;20232;-62
2023/01/17 09:09:18;;;;;;;6.53;1.60;;;;;;;0.78;89.63;95813.72;4882188;29;20251;-63
2023/01/17 09:11:44;;;;;;;3.10;1.60;;;;;;;0.93;89.40;95818.25;4880737;29;20248;-62
2023/01/17 09:14:12;;;;;;;3.03;1.50;;;;;;;1.06;90.05;95813.44;4882578;29;20600;-62
2023/01/17 09:16:38;;;;;;;3.00;1.50;;;;;;;1.19;88.02;95812.94;4878692;29;20598;-62
2023/01/17 09:19:05;;;;;;;4.50;1.23;;;;;;;1.33;87.82;95811.50;4883011;29;20236;-62
2023/01/17 09:21:33;;;;;;;4.50;1.50;;;;;;;1.44;87.59;95806.03;4880085;29;20236;-62
2023/01/17 09:23:59;;;;;;;3.20;1.37;;;;;;;1.56;86.71;95805.69;4881360;29;20255;-62
2023/01/17 09:26:28;;;;;;;3.33;1.00;;;;;;;1.65;85.33;95802.09;4880270;29;20244;-63
2023/01/17 09:28:55;;;;;;;3.40;1.00;;;;;;;1.75;84.88;95799.38;4879867;29;20834;-62
2023/01/17 09:31:22;;;;;;;2.10;0.80;;;;;;;1.89;83.90;95805.56;4881091;29;20232;-62
2023/01/17 09:33:50;;;;;;;4.10;1.03;;;;;;;1.96;83.22;95816.03;4880929;29;20225;-62
2023/01/17 09:36:17;;;;;;;1.87;0.63;;;;;;;2.10;82.36;95817.09;4882063;29;20327;-62
2023/01/17 09:38:45;;;;;;;2.67;0.70;;;;;;;2.19;80.92;95814.31;4877901;29;20292;-62
2023/01/17 09:41:26;;;;;;;1.87;0.93;;;;;;;2.28;80.04;95809.13;4880260;29;20245;-62
2023/01/17 09:44:00;;;;;;;1.70;0.70;;;;;;;2.42;79.83;95815.34;4880676;29;20236;-62
2023/01/17 09:46:30;;;;;;;2.00;0.80;;;;;;;2.46;79.12;95814.81;4878570;29;20231;-62
2023/01/17 09:49:06;;;;;;;4.90;0.90;;;;;;;2.47;78.97;95810.50;4897709;29;20240;-62
2023/01/17 09:51:32;;;;;;;1.50;0.70;;;;;;;2.50;76.78;95808.38;4879328;29;20247;-62
2023/01/17 09:54:01;;;;;;;2.50;0.80;;;;;;;2.56;77.17;95809.47;4882076;29;20244;-62
2023/01/17 09:56:31;;;;;;;1.83;0.80;;;;;;;2.65;77.85;95805.84;4877662;29;20259;-62
2023/01/17 09:59:26;;;;;;;2.40;0.70;;;;;;;2.65;78.00;95805.06;4881476;29;20321;-63
2023/01/17 10:02:00;;;;;;;3.13;0.90;;;;;;;2.73;78.29;95809.34;4880167;29;20260;-63
2023/01/17 10:04:44;;;;;;;3.13;0.77;;;;;;;2.77;78.29;95814.00;4876973;29;20626;-63
2023/01/17 10:07:20;;;;;;;4.47;0.73;;;;;;;2.89;77.84;95808.44;4895158;29;20243;-62
2023/01/17 10:10:09;;;;;;;3.33;2.33;;;;;;;2.92;77.02;95808.09;4876779;29;20768;-62
2023/01/17 10:12:43;;;;;;;7.30;3.40;;;;;;;3.01;77.31;95812.22;4878904;29;20243;-63
2023/01/17 10:15:37;;;;;;;15.73;4.87;;;;;;;3.09;76.57;95801.03;4882481;29;20257;-63
2023/01/17 10:18:24;;;;;;;6.50;2.17;;;;;;;3.09;76.45;95801.88;4878227;29;20816;-63
2023/01/17 10:20:57;;;;;;;6.67;2.87;;;;;;;3.21;76.08;95796.25;4879134;29;20311;-64
2023/01/17 10:23:46;;;;;;;5.20;1.87;;;;;;;3.31;76.06;95796.81;4877893;29;20240;-64
2023/01/17 10:26:17;;;;;;;2.63;0.90;;;;;;;3.29;76.24;95788.47;4880737;29;20244;-64
2023/01/17 10:28:47;;;;;;;4.13;1.40;;;;;;;3.46;75.29;95789.13;4877665;29;20735;-64
2023/01/17 10:31:22;;;;;;;4.47;1.87;;;;;;;3.58;74.34;95789.50;4895074;29;20240;-64
2023/01/17 10:33:52;;;;;;;7.17;3.23;;;;;;;3.69;73.07;95783.09;4878028;29;20245;-63
2023/01/17 10:36:20;;;;;;;4.97;2.10;;;;;;;3.63;73.75;95781.22;4881359;29;20665;-64
2023/01/17 10:38:49;;;;;;;2.60;1.50;;;;;;;3.64;74.54;95781.03;4878694;29;20288;-64
2023/01/17 10:41:24;;;;;;;4.27;1.77;;;;;;;3.59;74.19;95780.78;4881702;29;20236;-64
2023/01/17 10:44:04;;;;;;;5.67;1.37;;;;;;;3.62;73.15;95777.06;4877561;29;20299;-64
2023/01/17 10:46:36;;;;;;;4.90;2.67;;;;;;;3.63;74.43;95768.34;4877341;29;20240;-64
2023/01/17 10:49:03;;;;;;;10.60;5.73;;;;;;;3.56;76.71;95759.72;4881249;29;20232;-64
2023/01/17 10:51:48;;;;;;;6.80;3.73;;;;;;;3.43;76.19;95766.28;4877632;29;20240;-63
2023/01/17 10:54:29;;;;;;;5.37;3.67;;;;;;;3.36;77.08;95768.75;4881013;29;22339;-64
2023/01/17 10:56:58;;;;;;;5.20;2.80;;;;;;;3.36;78.30;95770.53;4878444;29;20236;-64
2023/01/17 10:59:29;;;;;;;6.97;2.37;;;;;;;3.37;78.70;95767.75;4877064;29;20283;-63
2023/01/17 11:01:56;;;;;;;5.20;2.40;;;;;;;3.36;76.97;95762.78;4878346;29;20248;-64
2023/01/17 11:04:30;;;;;;;4.60;1.57;;;;;;;3.40;78.36;95757.09;4876634;29;20228;-64
2023/01/17 11:07:13;;;;;;;6.00;1.30;;;;;;;3.47;78.31;95752.06;4878045;29;20247;-64
2023/01/17 11:09:42;;;;;;;3.00;1.60;;;;;;;3.66;77.24;95755.09;4876620;29;20236;-64
2023/01/17 11:12:24;;;;;;;3.17;1.60;;;;;;;3.80;77.85;95753.47;4879907;29;20713;-64
2023/01/17 11:15:01;;;;;;;192.73;80.00;;;;;;;3.85;76.06;95753.72;4878052;29;20228;-64
2023/01/17 11:17:28;;;;;;;18.97;9.70;;;;;;;4.03;74.57;95750.75;4878121;29;20224;-64
2023/01/17 11:20:07;;;;;;;3.23;1.40;;;;;;;4.16;71.89;95744.97;4879824;29;20308;-64
2023/01/17 11:22:33;;;;;;;2.87;1.60;;;;;;;4.31;71.51;95747.50;4876560;29;20844;-64
2023/01/17 11:25:01;;;;;;;5.40;1.50;;;;;;;4.47;71.90;95740.50;4879095;29;20271;-64
2023/01/17 11:27:31;;;;;;;3.27;1.20;;;;;;;4.70;73.35;95730.81;4877129;29;20300;-64
2023/01/17 11:30:15;;;;;;;2.37;0.87;;;;;;;4.97;67.41;95714.72;4893590;29;20240;-64
2023/01/17 11:32:52;;;;;;;2.83;1.00;;;;;;;5.24;70.05;95722.66;4877250;29;21040;-64
2023/01/17 11:35:21;;;;;;;2.03;0.50;;;;;;;5.50;63.75;95719.44;4879745;29;20250;-64
2023/01/17 11:37:49;;;;;;;1.83;0.70;;;;;;;5.20;67.19;95711.88;4876852;29;20240;-64
2023/01/17 11:40:23;;;;;;;2.23;0.70;;;;;;;5.30;65.12;95688.28;4880513;29;20316;-64
2023/01/17 11:43:01;;;;;;;2.40;0.40;;;;;;;5.41;62.93;95677.38;4882264;29;20657;-64
2023/01/17 11:45:29;;;;;;;2.08;0.70;;;;;;;5.36;64.27;95677.16;4877789;29;20459;-64
2023/01/17 11:48:14;;;;;;;2.37;0.57;;;;;;;5.34;64.06;95671.38;4883103;29;20633;-64
2023/01/17 11:50:43;;;;;;;0.80;0.67;;;;;;;5.17;63.32;95669.13;4881564;29;20251;-65
2023/01/17 11:53:21;;;;;;;1.53;0.60;;;;;;;5.11;64.44;95667.28;4883895;29;20240;-64
2023/01/17 11:55:58;;;;;;;1.50;0.57;;;;;;;4.92;65.52;95662.78;4879833;29;20251;-64
2023/01/17 11:58:28;;;;;;;1.93;0.60;;;;;;;4.91;63.18;95663.75;4880775;29;20229;-64
2023/01/17 12:01:00;;;;;;;1.77;0.80;;;;;;;4.79;63.43;95656.53;4881922;29;20300;-64
2023/01/17 12:03:50;;;;;;;1.77;0.90;;;;;;;4.54;66.71;95654.34;4880284;29;20273;-63
2023/01/17 12:06:29;;;;;;;2.37;0.90;;;;;;;4.52;67.00;95640.03;4880836;29;20221;-64
2023/01/17 12:09:08;;;;;;;2.90;1.63;;;;;;;4.45;65.11;95624.44;4878956;29;20317;-64
2023/01/17 12:13:59;;;;;;;1.60;0.90;;;;;;;4.44;64.36;95607.34;4878537;29;20233;-64
2023/01/17 12:14:44;;;;;;;2.50;0.53;;;;;;;4.36;63.61;95602.31;4880192;29;20230;-64
2023/01/17 12:17:27;;;;;;;2.17;0.80;;;;;;;4.32;63.56;95595.94;4883213;29;20306;-64
2023/01/17 12:20:00;;;;;;;1.00;0.60;;;;;;;4.28;65.21;95592.94;4881337;29;20285;-64
2023/01/17 12:22:58;;;;;;;1.23;1.13;;;;;;;4.22;64.80;95588.53;4879660;29;20229;-64
2023/01/17 12:25:35;;;;;;;1.17;0.40;;;;;;;4.21;65.04;95585.16;4870968;29;20237;-64
2023/01/17 12:28:15;;;;;;;1.97;0.80;;;;;;;4.20;65.71;95583.56;4882091;29;20300;-64
2023/01/17 12:31:00;;;;;;;3.63;0.90;;;;;;;4.26;64.51;95584.59;4877827;29;20236;-64
2023/01/17 12:33:38;;;;;;;1.47;0.67;;;;;;;4.28;66.23;95585.97;4877766;29;20255;-63
2023/01/17 12:36:16;;;;;;;4.67;2.50;;;;;;;4.39;65.96;95584.69;4883038;29;20288;-63
2023/01/17 12:38:46;;;;;;;2.43;1.57;;;;;;;4.46;63.73;95591.69;4880353;29;20225;-63
2023/01/17 12:41:18;;;;;;;3.70;0.90;;;;;;;4.51;62.22;95582.38;4882274;29;20312;-63
2023/01/17 12:43:45;;;;;;;1.80;0.70;;;;;;;4.56;63.25;95592.16;4879449;29;20236;-63
2023/01/17 12:46:19;;;;;;;2.50;1.00;;;;;;;4.52;63.56;95578.03;4883518;29;20270;-63
2023/01/17 12:48:50;;;;;;;2.10;0.50;;;;;;;4.55;63.31;95573.28;4878905;29;20238;-63
2023/01/17 12:51:23;;;;;;;1.83;0.60;;;;;;;4.65;61.65;95572.16;4882190;29;20641;-63
2023/01/17 12:53:58;;;;;;;2.43;0.73;;;;;;;4.60;64.09;95570.13;4879209;29;20305;-63
2023/01/17 12:56:30;;;;;;;3.00;1.27;;;;;;;4.65;62.98;95566.97;4878901;29;20236;-63
2023/01/17 12:59:12;;;;;;;5.87;2.97;;;;;;;4.78;64.00;95564.47;4881558;29;20303;-64
2023/01/17 13:01:56;;;;;;;5.17;2.27;;;;;;;4.76;64.71;95563.09;4879118;29;20228;-64
2023/01/17 13:04:27;;;;;;;2.50;1.37;;;;;;;4.69;63.56;95561.25;4879352;29;20604;-63
2023/01/17 13:07:06;;;;;;;2.23;1.13;;;;;;;4.69;63.80;95561.25;4879074;29;20225;-63
2023/01/17 13:09:41;;;;;;;2.50;1.03;;;;;;;4.72;63.25;95555.72;4877016;29;20677;-64
2023/01/17 13:12:12;;;;;;;1.63;0.97;;;;;;;4.86;65.79;95553.19;4882218;29;20237;-64